Time;durP1;ratioP1;P1;durP2;ratioP2;P2;SDS_P1;SDS_P2;PMS_P1;PMS_P2;Temp;Humidity;BMP_temperature;BMP_pressure;BME280_temperature;BME280_humidity;BME280_pressure;Samples;Min_cycle;Max_cycle;Signal;HPM_P1;HPM_P2
2022/03/18 00:02:22;;;;;;;5.65;1.88;;;;;;;8.04;52.43;102009.44;5110482;28;20043;-60
2022/03/18 00:04:50;;;;;;;6.95;1.73;;;;;;;8.04;52.23;102004.19;5109352;28;20063;-59
2022/03/18 00:07:20;;;;;;;6.20;1.60;;;;;;;8.05;52.25;102007.69;5110413;28;20085;-60
2022/03/18 00:09:48;;;;;;;6.97;1.83;;;;;;;8.05;52.22;102010.31;5110216;28;20055;-59
2022/03/18 00:12:15;;;;;;;7.80;1.75;;;;;;;8.04;52.52;102013.84;5109249;28;20051;-60
2022/03/18 00:14:42;;;;;;;8.00;2.13;;;;;;;8.04;52.37;102004.19;5109331;28;20748;-57
2022/03/18 00:17:10;;;;;;;10.00;2.10;;;;;;;8.03;52.58;102005.09;5110586;28;20056;-58
2022/03/18 00:19:38;;;;;;;5.90;1.85;;;;;;;8.03;52.16;102001.59;5110341;28;20420;-58
2022/03/18 00:22:06;;;;;;;9.20;1.35;;;;;;;8.03;52.38;102012.06;5110621;28;20047;-59
2022/03/18 00:24:34;;;;;;;5.97;1.65;;;;;;;8.01;52.27;102014.75;5110662;28;20055;-60
2022/03/18 00:27:05;;;;;;;8.73;2.53;;;;;;;8.00;52.45;102018.22;5108970;28;20047;-59
2022/03/18 00:29:33;;;;;;;13.18;2.30;;;;;;;7.99;52.46;102013.88;5110259;28;20047;-59
2022/03/18 00:32:00;;;;;;;8.98;2.10;;;;;;;7.98;52.43;102014.75;5110179;28;20047;-58
2022/03/18 00:34:31;;;;;;;8.50;2.17;;;;;;;7.98;52.69;102016.50;5110665;28;20491;-61
2022/03/18 00:36:57;;;;;;;6.93;1.92;;;;;;;7.97;52.71;102020.03;5110151;28;20506;-58
2022/03/18 00:39:24;;;;;;;10.20;1.90;;;;;;;7.97;52.84;102022.63;5110489;28;20055;-59
2022/03/18 00:41:51;;;;;;;5.28;2.03;;;;;;;7.95;52.63;102014.78;5110748;28;20043;-62
2022/03/18 00:44:17;;;;;;;5.20;1.65;;;;;;;7.94;52.69;102016.56;5114064;28;20092;-59
2022/03/18 00:46:44;;;;;;;5.90;1.63;;;;;;;7.94;52.78;102023.53;5113884;28;20051;-59
2022/03/18 00:52:05;;;;;;;5.90;1.73;;;;;;;7.93;53.06;102025.28;5114118;28;20051;-58
2022/03/18 00:54:36;;;;;;;5.53;1.60;;;;;;;7.92;52.83;102033.16;5114080;28;20043;-59
2022/03/18 00:57:03;;;;;;;7.93;1.65;;;;;;;7.90;52.48;102034.94;5112549;28;20051;-59
2022/03/18 00:59:31;;;;;;;5.80;1.83;;;;;;;7.88;52.66;102041.94;5113955;28;20950;-59
2022/03/18 01:01:58;;;;;;;8.80;1.77;;;;;;;7.86;52.93;102036.72;5112577;28;20044;-58
2022/03/18 01:04:28;;;;;;;10.80;1.80;;;;;;;7.85;52.86;102047.22;5112505;28;20052;-61
2022/03/18 01:06:56;;;;;;;6.25;1.70;;;;;;;7.82;53.04;102043.72;5112470;28;20562;-59
2022/03/18 01:09:25;;;;;;;7.15;1.98;;;;;;;7.81;52.97;102044.63;5111958;28;20089;-60
2022/03/18 01:11:53;;;;;;;6.18;1.70;;;;;;;7.80;53.08;102047.25;5112344;28;20054;-60
2022/03/18 01:14:21;;;;;;;7.45;1.92;;;;;;;7.78;53.05;102052.50;5112502;28;20195;-59
2022/03/18 01:16:48;;;;;;;5.15;1.33;;;;;;;7.75;52.87;102046.44;5112410;28;20046;-58
2022/03/18 01:19:15;;;;;;;7.35;1.73;;;;;;;7.73;53.27;102046.44;5113454;28;20047;-58
2022/03/18 01:21:43;;;;;;;9.52;2.40;;;;;;;7.68;53.07;102046.50;5113292;28;20441;-61
2022/03/18 01:24:10;;;;;;;6.25;1.65;;;;;;;7.65;53.10;102050.88;5113458;28;20055;-60
2022/03/18 01:26:37;;;;;;;10.05;2.00;;;;;;;7.63;53.29;102055.28;5113184;28;20040;-57
2022/03/18 01:29:04;;;;;;;6.50;2.03;;;;;;;7.61;53.28;102049.16;5113132;28;20060;-60
2022/03/18 01:31:31;;;;;;;9.73;1.77;;;;;;;7.57;53.35;102045.69;5113194;27;20055;-56
2022/03/18 01:33:58;;;;;;;7.40;1.90;;;;;;;7.55;53.48;102050.06;5113384;28;20077;-59
2022/03/18 01:36:25;;;;;;;6.80;1.90;;;;;;;7.55;53.42;102052.69;5113165;27;20059;-59
2022/03/18 01:38:52;;;;;;;5.50;1.85;;;;;;;7.53;53.61;102057.97;5113055;28;20054;-61
2022/03/18 01:41:18;;;;;;;6.32;2.38;;;;;;;7.53;53.66;102059.69;5112755;28;20055;-58
2022/03/18 01:43:46;;;;;;;7.63;2.00;;;;;;;7.52;53.57;102065.84;5113181;28;20052;-57
2022/03/18 01:46:14;;;;;;;8.10;2.22;;;;;;;7.51;53.95;102074.56;5111744;28;20051;-59
2022/03/18 01:48:41;;;;;;;6.85;2.03;;;;;;;7.48;53.57;102074.59;5111617;28;20479;-58
2022/03/18 01:51:08;;;;;;;7.43;2.22;;;;;;;7.46;53.45;102078.94;5112619;28;20421;-60
2022/03/18 01:53:37;;;;;;;6.45;2.08;;;;;;;7.43;53.55;102080.72;5112540;28;20048;-59
2022/03/18 01:56:05;;;;;;;10.38;2.53;;;;;;;7.40;53.39;102085.97;5111728;28;20100;-57
2022/03/18 01:58:32;;;;;;;7.55;1.92;;;;;;;7.38;53.42;102084.25;5111729;28;20040;-59
2022/03/18 02:00:59;;;;;;;10.52;2.15;;;;;;;7.35;53.79;102090.38;5111004;28;20039;-60
2022/03/18 02:03:26;;;;;;;14.45;2.78;;;;;;;7.33;53.74;102092.13;5112697;28;20575;-58
2022/03/18 02:05:53;;;;;;;6.90;2.05;;;;;;;7.31;53.77;102091.28;5112477;28;20511;-61
2022/03/18 02:08:20;;;;;;;8.88;2.38;;;;;;;7.28;53.71;102093.91;5112763;28;20059;-58
2022/03/18 02:10:46;;;;;;;9.27;2.10;;;;;;;7.26;54.10;102087.81;5112438;28;20061;-58
2022/03/18 02:13:13;;;;;;;6.95;2.25;;;;;;;7.25;53.96;102094.78;5112493;28;20049;-59
2022/03/18 02:15:40;;;;;;;14.40;2.78;;;;;;;7.25;54.04;102097.41;5112468;28;20048;-58
2022/03/18 02:18:06;;;;;;;7.38;2.30;;;;;;;7.25;54.36;102099.19;5112452;28;20450;-60
2022/03/18 02:20:34;;;;;;;7.32;2.13;;;;;;;7.25;54.38;102094.78;5112084;28;20059;-60
2022/03/18 02:23:04;;;;;;;12.95;2.30;;;;;;;7.26;54.86;102100.91;5111260;28;20055;-61
2022/03/18 02:25:31;;;;;;;11.13;2.60;;;;;;;7.28;54.57;102101.75;5112262;28;20059;-60
2022/03/18 02:28:03;;;;;;;6.65;2.35;;;;;;;7.27;55.08;102105.28;5112347;28;20071;-59
2022/03/18 02:30:33;;;;;;;6.72;2.20;;;;;;;7.29;54.45;102098.28;5110440;28;20047;-61
2022/03/18 02:33:01;;;;;;;8.95;2.40;;;;;;;7.30;54.69;102100.03;5111882;28;20147;-61
2022/03/18 02:35:28;;;;;;;8.73;2.30;;;;;;;7.30;54.52;102105.25;5110826;28;20043;-57
2022/03/18 02:38:00;;;;;;;9.88;2.42;;;;;;;7.30;55.12;102103.50;5112310;28;20581;-62
2022/03/18 02:40:27;;;;;;;9.93;1.98;;;;;;;7.32;54.27;102108.72;5110715;28;20455;-59
2022/03/18 02:42:54;;;;;;;11.38;2.05;;;;;;;7.34;54.50;102108.72;5110854;28;20059;-57
2022/03/18 02:45:21;;;;;;;7.20;2.17;;;;;;;7.34;54.19;102112.22;5112128;28;20056;-59
2022/03/18 02:47:48;;;;;;;9.23;2.17;;;;;;;7.35;54.36;102116.59;5112451;28;20048;-60
2022/03/18 02:50:15;;;;;;;8.52;2.47;;;;;;;7.34;54.47;102112.22;5112003;28;20058;-59
2022/03/18 02:52:43;;;;;;;6.30;2.10;;;;;;;7.34;54.31;102119.22;5110428;28;20055;-58
2022/03/18 02:55:10;;;;;;;8.20;2.50;;;;;;;7.34;54.68;102124.44;5111852;28;20056;-58
2022/03/18 02:57:38;;;;;;;10.13;2.28;;;;;;;7.34;54.78;102119.22;5111606;28;20096;-59
2022/03/18 03:00:07;;;;;;;8.23;2.08;;;;;;;7.33;55.07;102120.94;5110077;28;20096;-58
2022/03/18 03:02:34;;;;;;;4.28;2.10;;;;;;;7.32;54.80;102124.44;5110085;28;20063;-58
2022/03/18 03:08:00;;;;;;;12.57;2.67;;;;;;;7.31;54.69;102127.97;5111518;28;20507;-60
2022/03/18 03:10:31;;;;;;;11.63;2.22;;;;;;;7.29;54.50;102127.97;5111515;28;20070;-60
2022/03/18 03:12:59;;;;;;;8.43;2.10;;;;;;;7.29;54.94;102127.97;5110664;28;20054;-59
2022/03/18 03:15:26;;;;;;;9.00;2.53;;;;;;;7.29;54.78;102135.81;5111550;28;20047;-61
2022/03/18 03:17:53;;;;;;;8.88;2.05;;;;;;;7.29;54.61;102134.97;5111229;28;20043;-59
2022/03/18 03:20:20;;;;;;;11.13;2.40;;;;;;;7.28;54.99;102131.47;5111212;28;20064;-60
2022/03/18 03:22:47;;;;;;;12.15;2.28;;;;;;;7.28;54.66;102135.81;5111342;28;20052;-57
2022/03/18 03:25:13;;;;;;;5.35;1.90;;;;;;;7.28;54.99;102125.34;5111210;28;20503;-59
2022/03/18 03:27:40;;;;;;;6.82;2.58;;;;;;;7.28;55.20;102128.84;5111333;28;20465;-61
2022/03/18 03:30:08;;;;;;;6.65;2.45;;;;;;;7.26;54.95;102133.22;5110964;28;20055;-61
2022/03/18 03:32:35;;;;;;;12.60;2.97;;;;;;;7.27;55.16;102147.19;5109958;28;20492;-62
2022/03/18 03:35:04;;;;;;;10.20;2.20;;;;;;;7.26;55.03;102145.44;5109907;28;20052;-57
2022/03/18 03:37:31;;;;;;;7.07;2.28;;;;;;;7.26;55.17;102148.06;5109621;28;20048;-58
2022/03/18 03:39:58;;;;;;;8.80;1.95;;;;;;;7.25;54.97;102157.66;5110752;28;20449;-57
2022/03/18 03:42:24;;;;;;;8.57;2.30;;;;;;;7.26;54.97;102161.16;5110875;28;20640;-59
2022/03/18 03:44:51;;;;;;;4.47;1.58;;;;;;;7.25;55.06;102155.06;5110689;28;20051;-60
2022/03/18 03:47:17;;;;;;;6.13;2.35;;;;;;;7.24;55.14;102148.06;5110815;28;20059;-60
2022/03/18 03:49:44;;;;;;;8.88;2.47;;;;;;;7.25;54.97;102159.44;5110452;28;20126;-60
2022/03/18 03:52:11;;;;;;;6.32;2.08;;;;;;;7.24;55.38;102161.19;5110358;28;20057;-62
2022/03/18 03:54:38;;;;;;;4.57;1.75;;;;;;;7.24;54.97;102174.28;5111150;28;20476;-59
2022/03/18 03:57:05;;;;;;;8.13;2.00;;;;;;;7.24;54.78;102183.88;5110804;28;20048;-59
2022/03/18 03:59:31;;;;;;;7.28;2.08;;;;;;;7.23;55.01;102182.13;5110616;28;20051;-60
2022/03/18 04:01:59;;;;;;;12.85;2.53;;;;;;;7.22;55.17;102181.25;5110632;28;20043;-59
2022/03/18 04:04:26;;;;;;;11.00;2.30;;;;;;;7.21;55.26;102190.00;5110519;28;20078;-57
2022/03/18 04:06:53;;;;;;;7.88;2.33;;;;;;;7.19;55.13;102188.25;5110576;28;20388;-60
2022/03/18 04:09:20;;;;;;;8.95;2.25;;;;;;;7.17;55.04;102194.38;5110345;28;20051;-57
2022/03/18 04:11:47;;;;;;;8.63;2.45;;;;;;;7.17;55.39;102186.53;5110913;28;20043;-59
2022/03/18 04:14:13;;;;;;;9.20;2.17;;;;;;;7.16;55.14;102187.41;5109469;28;20091;-60
2022/03/18 04:16:40;;;;;;;8.20;2.08;;;;;;;7.15;55.19;102195.25;5113002;28;20055;-59
2022/03/18 04:19:06;;;;;;;13.10;2.38;;;;;;;7.14;55.27;102189.16;5114559;28;20051;-61
2022/03/18 04:21:33;;;;;;;5.70;2.50;;;;;;;7.13;55.22;102200.50;5114567;28;20057;-59
2022/03/18 04:24:00;;;;;;;5.93;1.88;;;;;;;7.13;55.20;102197.00;5114999;28;20496;-59
2022/03/18 04:26:26;;;;;;;8.55;2.22;;;;;;;7.12;55.35;102209.25;5114749;28;20549;-59
2022/03/18 04:28:53;;;;;;;5.30;2.20;;;;;;;7.12;55.44;102206.63;5114355;28;20047;-58
2022/03/18 04:31:20;;;;;;;9.88;2.40;;;;;;;7.12;55.50;102211.88;5114327;28;20063;-62
2022/03/18 04:33:46;;;;;;;11.98;2.45;;;;;;;7.12;55.80;102219.72;5114486;28;20484;-60
2022/03/18 04:36:13;;;;;;;8.80;2.22;;;;;;;7.13;55.53;102215.34;5114686;28;20683;-58
2022/03/18 04:38:39;;;;;;;7.28;2.45;;;;;;;7.12;55.39;102214.50;5114608;28;20772;-59
2022/03/18 04:41:10;;;;;;;7.63;2.35;;;;;;;7.12;55.20;102210.97;5114470;28;20090;-59
2022/03/18 04:43:36;;;;;;;5.05;2.20;;;;;;;7.11;55.44;102224.97;5114184;28;20051;-59
2022/03/18 04:46:03;;;;;;;10.98;2.67;;;;;;;7.12;55.50;102224.97;5112946;28;20101;-59
2022/03/18 04:48:30;;;;;;;6.95;2.25;;;;;;;7.12;55.54;102222.34;5113838;27;20613;-58
2022/03/18 04:50:57;;;;;;;7.35;2.17;;;;;;;7.11;55.32;102233.66;5113826;28;20043;-59
2022/03/18 04:53:23;;;;;;;7.65;2.50;;;;;;;7.11;55.46;102235.44;5114045;28;20044;-59
2022/03/18 04:55:50;;;;;;;7.03;2.10;;;;;;;7.09;55.16;102232.81;5113788;28;20047;-59
2022/03/18 04:58:16;;;;;;;5.10;1.70;;;;;;;7.08;55.37;102244.19;5113904;28;20054;-60
2022/03/18 05:00:43;;;;;;;6.90;2.22;;;;;;;7.07;55.35;102239.81;5113676;28;20051;-60
2022/03/18 05:03:10;;;;;;;6.25;2.00;;;;;;;7.04;55.28;102237.19;5112693;28;20048;-58
2022/03/18 05:05:38;;;;;;;9.07;2.28;;;;;;;7.02;55.36;102238.94;5113987;27;20139;-58
2022/03/18 05:08:04;;;;;;;7.55;2.65;;;;;;;7.00;55.56;102248.56;5113949;28;20048;-60
2022/03/18 05:10:31;;;;;;;6.70;2.20;;;;;;;6.97;55.64;102246.81;5113692;27;20063;-60
2022/03/18 05:12:58;;;;;;;11.93;3.00;;;;;;;6.96;55.67;102257.28;5113693;28;20051;-59
2022/03/18 05:15:25;;;;;;;5.78;2.30;;;;;;;6.94;55.72;102259.91;5113418;28;20048;-61
2022/03/18 05:17:54;;;;;;;7.75;2.67;;;;;;;6.92;56.09;102274.75;5113480;28;20112;-59
2022/03/18 05:20:21;;;;;;;9.80;2.92;;;;;;;6.93;55.64;102278.22;5112329;28;20051;-60
2022/03/18 05:22:48;;;;;;;11.13;3.13;;;;;;;6.90;55.62;102274.75;5113276;28;20051;-63
2022/03/18 05:25:15;;;;;;;11.65;3.03;;;;;;;6.88;55.83;102275.63;5113430;27;20043;-61
2022/03/18 05:27:44;;;;;;;11.07;2.42;;;;;;;6.87;55.93;102279.09;5112741;27;20062;-59
2022/03/18 05:30:13;;;;;;;6.70;2.70;;;;;;;6.86;55.60;102282.59;5111923;28;20430;-59
2022/03/18 05:32:40;;;;;;;6.72;2.58;;;;;;;6.85;55.82;102284.38;5112232;28;20051;-58
2022/03/18 05:35:07;;;;;;;5.50;2.17;;;;;;;6.84;55.56;102295.69;5112004;28;20052;-60
2022/03/18 05:37:34;;;;;;;7.00;2.58;;;;;;;6.83;55.72;102290.44;5113254;28;20506;-59
2022/03/18 05:40:00;;;;;;;7.15;2.63;;;;;;;6.82;55.71;102296.56;5113124;28;20048;-59
2022/03/18 05:42:27;;;;;;;8.52;2.42;;;;;;;6.80;55.67;102304.41;5113063;28;20057;-60
2022/03/18 05:44:53;;;;;;;6.35;2.08;;;;;;;6.78;55.73;102307.03;5113302;28;20059;-60
2022/03/18 05:47:20;;;;;;;9.10;2.45;;;;;;;6.77;55.54;102307.06;5113243;27;20060;-58
2022/03/18 05:49:47;;;;;;;7.25;2.30;;;;;;;6.73;55.66;102303.53;5112633;27;20066;-56
2022/03/18 05:52:13;;;;;;;4.82;2.17;;;;;;;6.71;55.45;102313.16;5112879;28;20059;-59
2022/03/18 05:54:40;;;;;;;6.70;2.45;;;;;;;6.69;55.87;102317.50;5112806;28;20435;-59
2022/03/18 05:57:06;;;;;;;7.03;2.50;;;;;;;6.67;55.95;102316.63;5112617;28;20043;-57
2022/03/18 05:59:35;;;;;;;7.97;2.60;;;;;;;6.65;56.35;102316.63;5112784;28;20086;-58
2022/03/18 06:02:02;;;;;;;9.38;2.60;;;;;;;6.67;56.05;102329.72;5112742;27;20051;-60
2022/03/18 06:04:31;;;;;;;10.48;2.40;;;;;;;6.67;56.36;102332.34;5111428;28;20096;-59
2022/03/18 06:06:58;;;;;;;10.25;2.30;;;;;;;6.68;56.36;102343.66;5112599;28;20059;-60
2022/03/18 06:12:10;;;;;;;10.35;2.55;;;;;;;6.73;56.46;102337.56;5113087;28;20533;-60
2022/03/18 06:14:37;;;;;;;6.03;2.40;;;;;;;6.78;56.72;102345.44;5111370;28;20138;-59
2022/03/18 06:17:05;;;;;;;11.07;2.67;;;;;;;6.79;56.90;102349.81;5112946;27;20044;-57
2022/03/18 06:19:32;;;;;;;6.70;1.90;;;;;;;6.83;56.63;102351.56;5110914;28;20150;-62
2022/03/18 06:22:00;;;;;;;8.93;2.05;;;;;;;6.86;56.74;102348.06;5111020;28;20051;-58
2022/03/18 06:24:28;;;;;;;9.75;2.97;;;;;;;6.92;56.84;102348.06;5112528;28;20047;-59
2022/03/18 06:26:55;;;;;;;5.97;2.63;;;;;;;6.96;56.63;102341.09;5112394;28;20043;-63
2022/03/18 06:29:22;;;;;;;8.73;2.60;;;;;;;6.99;56.76;102338.47;5111097;28;20051;-58
2022/03/18 06:31:50;;;;;;;9.57;2.40;;;;;;;7.03;56.80;102342.84;5112674;28;20109;-59
2022/03/18 06:34:17;;;;;;;10.98;2.20;;;;;;;7.06;56.87;102349.81;5112799;28;20054;-59
2022/03/18 06:36:45;;;;;;;7.03;2.38;;;;;;;7.08;56.72;102348.94;5111460;28;20056;-61
2022/03/18 06:39:12;;;;;;;6.38;1.90;;;;;;;7.13;56.65;102351.53;5110945;28;20061;-59
2022/03/18 06:41:39;;;;;;;9.57;2.75;;;;;;;7.16;56.79;102357.69;5111133;28;20496;-60
2022/03/18 06:44:08;;;;;;;7.00;2.22;;;;;;;7.21;57.14;102354.19;5112097;28;20054;-59
2022/03/18 06:46:36;;;;;;;8.10;1.95;;;;;;;7.24;56.96;102346.28;5110973;28;20086;-61
2022/03/18 06:49:04;;;;;;;4.65;1.88;;;;;;;7.27;56.91;102344.56;5109412;28;20055;-60
2022/03/18 06:51:31;;;;;;;7.60;2.50;;;;;;;7.30;57.14;102341.91;5109935;28;20051;-61
2022/03/18 06:53:58;;;;;;;7.00;2.50;;;;;;;7.35;56.95;102348.91;5112038;27;20055;-60
2022/03/18 06:56:30;;;;;;;6.55;2.30;;;;;;;7.38;56.88;102349.78;5110735;28;20457;-60
2022/03/18 06:58:57;;;;;;;7.97;2.38;;;;;;;7.41;57.17;102349.75;5109856;28;20427;-62
2022/03/18 07:01:24;;;;;;;7.70;2.08;;;;;;;7.46;56.85;102361.97;5109718;28;20043;-60
2022/03/18 07:03:51;;;;;;;8.85;2.97;;;;;;;7.50;57.14;102368.97;5111672;28;20077;-61
2022/03/18 07:06:18;;;;;;;10.25;2.25;;;;;;;7.54;57.09;102379.47;5111724;28;20047;-60
2022/03/18 07:08:44;;;;;;;7.82;2.95;;;;;;;7.60;57.19;102388.19;5111181;28;20373;-60
2022/03/18 07:11:13;;;;;;;7.35;2.47;;;;;;;7.63;57.10;102385.56;5111128;28;20059;-62
2022/03/18 07:13:45;;;;;;;7.68;2.63;;;;;;;7.66;57.17;102389.03;5110288;28;20089;-59
2022/03/18 07:18:57;;;;;;;9.38;2.60;;;;;;;7.73;56.79;102386.41;5110828;28;20062;-60
2022/03/18 07:21:24;;;;;;;8.40;2.35;;;;;;;7.77;56.72;102389.00;5109116;28;20793;-58
2022/03/18 07:23:51;;;;;;;9.45;2.90;;;;;;;7.81;56.92;102393.38;5111369;28;20116;-61
2022/03/18 07:26:18;;;;;;;12.77;3.05;;;;;;;7.86;56.96;102398.63;5111428;27;20449;-60
2022/03/18 07:28:44;;;;;;;6.90;2.40;;;;;;;7.89;57.07;102395.09;5110885;28;20437;-61
2022/03/18 07:31:11;;;;;;;8.48;2.70;;;;;;;7.94;57.49;102393.34;5110851;28;20063;-59
2022/03/18 07:33:38;;;;;;;8.50;2.28;;;;;;;7.98;57.43;102400.31;5111276;28;20051;-62
2022/03/18 07:36:05;;;;;;;6.00;2.40;;;;;;;8.03;57.13;102389.78;5110970;28;20488;-59
2022/03/18 07:38:32;;;;;;;9.68;2.35;;;;;;;8.06;57.12;102393.31;5110648;28;20052;-61
2022/03/18 07:40:59;;;;;;;7.07;2.30;;;;;;;8.12;57.38;102395.03;5109796;28;20059;-59
2022/03/18 07:43:25;;;;;;;7.75;3.20;;;;;;;8.16;57.13;102399.38;5110635;28;20553;-58
2022/03/18 07:45:52;;;;;;;9.60;2.08;;;;;;;8.23;56.96;102401.97;5110676;28;20047;-61
2022/03/18 07:48:20;;;;;;;6.82;2.13;;;;;;;8.28;57.02;102400.19;5110011;28;20645;-60
2022/03/18 07:50:47;;;;;;;13.63;2.47;;;;;;;8.32;56.84;102402.81;5109248;28;20400;-60
2022/03/18 07:53:14;;;;;;;5.82;1.95;;;;;;;8.40;57.10;102415.88;5111041;28;20130;-62
2022/03/18 07:55:40;;;;;;;6.00;1.90;;;;;;;8.46;56.65;102415.84;5110651;28;20055;-60
2022/03/18 07:58:07;;;;;;;7.75;2.65;;;;;;;8.53;56.63;102416.75;5110783;28;20050;-58
2022/03/18 08:00:35;;;;;;;6.80;2.70;;;;;;;8.59;56.54;102421.94;5110677;28;20449;-59
2022/03/18 08:03:02;;;;;;;10.77;2.92;;;;;;;8.65;56.41;102421.06;5110761;28;20051;-59
2022/03/18 08:05:30;;;;;;;4.60;2.00;;;;;;;8.72;56.14;102421.88;5110513;28;20420;-61
2022/03/18 08:07:58;;;;;;;11.48;2.55;;;;;;;8.80;56.35;102429.72;5110571;28;20055;-63
2022/03/18 08:10:25;;;;;;;7.72;2.35;;;;;;;8.86;56.39;102433.16;5109329;28;20342;-59
2022/03/18 08:12:52;;;;;;;9.05;2.10;;;;;;;8.93;56.09;102431.38;5110613;28;20105;-60
2022/03/18 08:15:20;;;;;;;7.80;2.67;;;;;;;9.00;56.02;102440.06;5109524;28;20052;-59
2022/03/18 08:17:54;;;;;;;9.05;2.55;;;;;;;9.06;56.12;102452.31;5110497;28;20518;-60
2022/03/18 08:20:21;;;;;;;6.20;1.70;;;;;;;9.12;55.92;102454.88;5109583;28;20445;-60
2022/03/18 08:22:49;;;;;;;4.55;2.03;;;;;;;9.19;55.73;102458.34;5109232;28;20080;-59
2022/03/18 08:25:16;;;;;;;6.13;1.80;;;;;;;9.26;55.20;102460.03;5109030;28;20040;-59
2022/03/18 08:27:42;;;;;;;6.80;2.50;;;;;;;9.33;55.43;102471.38;5110466;28;20059;-60
2022/03/18 08:30:11;;;;;;;4.95;1.90;;;;;;;9.39;55.34;102476.59;5110344;28;20058;-60
2022/03/18 08:32:39;;;;;;;4.88;2.22;;;;;;;9.48;55.05;102470.38;5109480;28;20051;-60
2022/03/18 08:35:07;;;;;;;4.93;1.58;;;;;;;9.55;54.91;102472.06;5109185;28;20492;-59
2022/03/18 08:40:20;;;;;;;5.15;1.52;;;;;;;9.73;54.15;102475.41;5110475;28;20055;-61
2022/03/18 08:42:47;;;;;;;5.78;1.70;;;;;;;9.81;54.05;102476.22;5109276;28;20052;-61
2022/03/18 08:45:14;;;;;;;6.03;1.60;;;;;;;9.88;53.75;102477.03;5109242;28;20048;-59
2022/03/18 08:47:41;;;;;;;3.78;1.50;;;;;;;9.96;53.37;102493.63;5109116;28;20044;-59
2022/03/18 08:50:08;;;;;;;4.43;1.50;;;;;;;10.03;53.46;102491.78;5110047;28;20055;-58
2022/03/18 08:52:35;;;;;;;6.28;1.80;;;;;;;10.11;53.10;102500.47;5110253;28;20488;-59
2022/03/18 08:55:05;;;;;;;7.07;1.52;;;;;;;10.18;53.01;102511.81;5110296;28;20055;-59
2022/03/18 08:57:34;;;;;;;2.97;1.25;;;;;;;10.26;52.80;102514.34;5108992;28;20055;-62
2022/03/18 09:00:01;;;;;;;7.00;1.85;;;;;;;10.33;52.61;102507.25;5109973;28;20044;-59
2022/03/18 09:02:28;;;;;;;2.00;1.30;;;;;;;10.37;52.52;102514.22;5110460;28;20092;-62
2022/03/18 09:04:54;;;;;;;6.43;1.60;;;;;;;10.43;52.46;102519.41;5114673;28;20048;-60
2022/03/18 09:07:21;;;;;;;8.25;1.58;;;;;;;10.49;52.48;102513.25;5112942;28;20043;-60
2022/03/18 09:09:48;;;;;;;4.93;1.85;;;;;;;10.55;52.51;102519.31;5113674;28;20142;-61
2022/03/18 09:12:18;;;;;;;6.38;1.17;;;;;;;10.62;52.12;102529.78;5113858;28;20530;-60
2022/03/18 09:14:45;;;;;;;6.28;1.55;;;;;;;10.71;52.32;102534.94;5112474;28;20047;-61
2022/03/18 09:17:12;;;;;;;4.38;1.20;;;;;;;10.79;51.60;102543.59;5112881;28;20085;-62
2022/03/18 09:19:39;;;;;;;5.18;1.10;;;;;;;10.87;51.29;102540.84;5113780;28;20047;-58
2022/03/18 09:22:07;;;;;;;3.72;1.20;;;;;;;10.93;51.20;102539.91;5113683;28;20052;-59
2022/03/18 09:24:37;;;;;;;4.35;1.35;;;;;;;11.00;51.20;102543.34;5112289;28;20051;-58
2022/03/18 09:27:04;;;;;;;3.63;1.38;;;;;;;11.07;51.56;102540.59;5112363;28;20048;-59
2022/03/18 09:29:31;;;;;;;4.15;1.42;;;;;;;11.15;51.16;102537.84;5113139;28;20392;-59
2022/03/18 09:31:58;;;;;;;5.70;1.50;;;;;;;11.20;50.95;102543.03;5113139;28;20055;-59
2022/03/18 09:34:25;;;;;;;8.30;1.60;;;;;;;11.28;50.92;102556.09;5113504;27;20048;-59
2022/03/18 09:36:53;;;;;;;4.50;1.98;;;;;;;11.33;51.20;102554.31;5113518;28;20055;-58
2022/03/18 09:39:21;;;;;;;5.70;1.65;;;;;;;11.39;50.84;102554.19;5111932;28;20052;-59
2022/03/18 09:41:48;;;;;;;4.22;1.80;;;;;;;11.45;50.82;102553.22;5112065;28;20047;-59
2022/03/18 09:44:15;;;;;;;4.43;1.85;;;;;;;11.50;50.92;102548.75;5112927;28;20058;-60
2022/03/18 09:46:45;;;;;;;7.07;2.00;;;;;;;11.56;50.71;102566.25;5113350;28;20054;-59
2022/03/18 09:49:17;;;;;;;4.57;1.70;;;;;;;11.60;50.47;102567.94;5113010;28;20131;-59
2022/03/18 09:51:46;;;;;;;6.60;1.42;;;;;;;11.67;50.53;102563.44;5112967;28;20047;-59
2022/03/18 09:54:16;;;;;;;4.88;1.17;;;;;;;11.72;50.20;102564.22;5113120;28;20087;-59
2022/03/18 09:56:46;;;;;;;3.25;1.05;;;;;;;11.78;49.68;102568.53;5111562;28;20051;-60
2022/03/18 09:59:14;;;;;;;8.85;1.83;;;;;;;11.85;50.19;102575.47;5112844;28;20063;-61
2022/03/18 10:01:41;;;;;;;4.45;1.50;;;;;;;11.91;50.35;102570.06;5111500;28;20523;-57
2022/03/18 10:04:12;;;;;;;6.43;2.00;;;;;;;11.97;49.94;102577.03;5112875;28;20059;-59
2022/03/18 10:06:43;;;;;;;7.90;1.77;;;;;;;12.05;50.33;102577.78;5111683;28;20048;-62
2022/03/18 10:09:12;;;;;;;4.30;1.67;;;;;;;12.12;50.42;102571.47;5111160;28;20043;-59
2022/03/18 10:11:43;;;;;;;7.18;2.20;;;;;;;12.23;50.40;102576.56;5111484;28;20040;-61
2022/03/18 10:14:15;;;;;;;5.03;1.40;;;;;;;12.32;49.58;102578.19;5112730;28;20063;-60
2022/03/18 10:16:43;;;;;;;5.72;1.80;;;;;;;12.45;50.22;102577.94;5112689;28;20093;-60
2022/03/18 10:19:17;;;;;;;7.65;1.88;;;;;;;12.56;49.58;102588.31;5112333;28;20052;-60
2022/03/18 10:22:02;;;;;;;7.80;2.10;;;;;;;12.67;49.92;102580.16;5111255;28;20057;-61
2022/03/18 10:24:36;;;;;;;5.95;2.03;;;;;;;12.82;49.41;102578.97;5112497;28;20047;-61
2022/03/18 10:27:17;;;;;;;5.55;2.40;;;;;;;12.95;49.00;102580.47;5111304;28;20058;-60
2022/03/18 10:29:47;;;;;;;7.90;2.47;;;;;;;13.09;49.43;102569.56;5110753;28;20057;-60
2022/03/18 10:32:16;;;;;;;8.82;2.30;;;;;;;13.24;49.53;102576.28;5112068;28;20047;-60
2022/03/18 10:37:44;;;;;;;5.43;2.25;;;;;;;13.51;48.90;102583.66;5112399;28;20048;-60
2022/03/18 10:40:12;;;;;;;4.15;2.20;;;;;;;13.65;49.78;102584.16;5110644;28;20497;-58
2022/03/18 10:42:40;;;;;;;7.03;2.42;;;;;;;13.79;49.60;102586.47;5112235;28;20124;-60
2022/03/18 10:45:08;;;;;;;7.82;2.60;;;;;;;13.91;49.27;102587.09;5110766;28;20514;-60
2022/03/18 10:47:37;;;;;;;6.80;2.30;;;;;;;14.02;48.74;102592.13;5110657;28;20471;-61
2022/03/18 10:50:10;;;;;;;7.22;2.28;;;;;;;14.13;48.41;102587.38;5111887;28;20051;-59
2022/03/18 10:52:46;;;;;;;7.45;2.50;;;;;;;14.25;48.54;102593.28;5111668;28;20054;-61
2022/03/18 10:55:19;;;;;;;8.52;2.75;;;;;;;14.34;47.77;102593.03;5110514;28;20411;-62
2022/03/18 10:57:54;;;;;;;7.85;2.53;;;;;;;14.42;47.82;102585.75;5111711;28;20051;-62
2022/03/18 11:00:25;;;;;;;10.07;2.83;;;;;;;14.55;48.29;102590.69;5110688;28;20403;-59
2022/03/18 11:02:53;;;;;;;10.80;3.13;;;;;;;14.66;48.00;102601.00;5111693;28;20047;-59
2022/03/18 11:05:21;;;;;;;5.07;2.50;;;;;;;14.76;47.70;102599.84;5110569;28;20047;-58
2022/03/18 11:07:50;;;;;;;8.90;2.80;;;;;;;14.87;47.90;102599.53;5110730;28;20046;-59
2022/03/18 11:13:06;;;;;;;7.40;3.05;;;;;;;15.14;47.85;102602.25;5111868;28;20506;-59
2022/03/18 11:15:35;;;;;;;5.30;2.67;;;;;;;15.27;47.42;102609.84;5111788;28;20047;-61
2022/03/18 11:18:03;;;;;;;5.97;2.70;;;;;;;15.43;47.70;102600.50;5111571;28;20070;-59
2022/03/18 11:20:33;;;;;;;7.95;2.90;;;;;;;15.63;47.91;102596.34;5111292;28;20055;-59
2022/03/18 11:23:00;;;;;;;9.55;2.80;;;;;;;15.90;48.52;102589.22;5111431;28;20059;-61
2022/03/18 11:25:28;;;;;;;7.57;2.63;;;;;;;16.27;48.96;102587.09;5109849;28;20055;-62
2022/03/18 11:27:57;;;;;;;6.45;2.53;;;;;;;16.80;50.03;102584.31;5111440;28;20047;-62
2022/03/18 11:30:30;;;;;;;5.68;2.60;;;;;;;17.45;49.73;102578.25;5109703;28;20054;-59
2022/03/18 11:33:09;;;;;;;7.05;2.70;;;;;;;18.25;47.23;102586.50;5110141;28;20510;-60
2022/03/18 11:35:48;;;;;;;6.55;3.00;;;;;;;19.10;46.03;102597.78;5111549;28;20133;-59
2022/03/18 11:38:15;;;;;;;6.03;2.38;;;;;;;19.88;46.85;102598.44;5111262;28;20063;-59
2022/03/18 11:40:57;;;;;;;5.50;2.63;;;;;;;20.59;43.85;102596.56;5109622;28;20093;-59
2022/03/18 11:43:47;;;;;;;5.80;2.63;;;;;;;21.30;42.40;102594.47;5111239;28;20048;-60
2022/03/18 11:46:16;;;;;;;6.28;2.53;;;;;;;22.02;42.89;102586.78;5111111;28;20104;-60
2022/03/18 11:48:52;;;;;;;5.15;2.38;;;;;;;22.59;42.19;102590.47;5110927;28;20043;-59
2022/03/18 11:51:22;;;;;;;6.72;2.42;;;;;;;23.16;40.03;102597.56;5109344;28;20039;-61
2022/03/18 11:53:51;;;;;;;5.93;2.63;;;;;;;23.69;40.30;102588.72;5111183;28;20062;-61